sensor_id;sensor_type;location;lat;lon;timestamp;pressure;altitude;pressure_sealevel;temperature;humidity
61900;BME280;47853;55.890;37.664;2023-02-04T00:00:11;98731.91;;;0.67;100.00
61900;BME280;47853;55.890;37.664;2023-02-04T00:02:37;98740.78;;;0.88;100.00
61900;BME280;47853;55.890;37.664;2023-02-04T00:05:02;98741.53;;;0.67;100.00
61900;BME280;47853;55.890;37.664;2023-02-04T00:07:27;98732.16;;;0.53;100.00
61900;BME280;47853;55.890;37.664;2023-02-04T00:09:53;98724.41;;;-0.06;100.00
61900;BME280;47853;55.890;37.664;2023-02-04T00:12:18;98734.94;;;-0.19;100.00
61900;BME280;47853;55.890;37.664;2023-02-04T00:14:43;98741.75;;;0.18;100.00
61900;BME280;47853;55.890;37.664;2023-02-04T00:17:09;98749.56;;;0.07;100.00
61900;BME280;47853;55.890;37.664;2023-02-04T00:19:34;98754.13;;;0.27;100.00
61900;BME280;47853;55.890;37.664;2023-02-04T00:21:59;98733.66;;;0.10;100.00
61900;BME280;47853;55.890;37.664;2023-02-04T00:24:25;98751.50;;;0.27;100.00
61900;BME280;47853;55.890;37.664;2023-02-04T00:26:50;98730.09;;;0.11;100.00
61900;BME280;47853;55.890;37.664;2023-02-04T00:29:15;98747.59;;;0.56;100.00
61900;BME280;47853;55.890;37.664;2023-02-04T00:31:41;98759.03;;;-0.15;100.00
61900;BME280;47853;55.890;37.664;2023-02-04T00:34:06;98769.50;;;-0.04;100.00
61900;BME280;47853;55.890;37.664;2023-02-04T00:36:31;98763.19;;;-0.48;100.00
61900;BME280;47853;55.890;37.664;2023-02-04T00:38:57;98755.84;;;-0.43;100.00
61900;BME280;47853;55.890;37.664;2023-02-04T00:41:22;98760.09;;;-0.53;100.00
61900;BME280;47853;55.890;37.664;2023-02-04T00:43:47;98764.63;;;-0.68;100.00
61900;BME280;47853;55.890;37.664;2023-02-04T00:46:13;98773.34;;;-0.56;100.00
61900;BME280;47853;55.890;37.664;2023-02-04T00:48:38;98756.53;;;-0.52;100.00
61900;BME280;47853;55.890;37.664;2023-02-04T00:51:09;98755.78;;;-0.30;100.00
61900;BME280;47853;55.890;37.664;2023-02-04T00:53:35;98768.22;;;0.02;100.00
61900;BME280;47853;55.890;37.664;2023-02-04T00:56:00;98762.38;;;0.10;100.00
61900;BME280;47853;55.890;37.664;2023-02-04T00:58:25;98780.75;;;0.67;100.00
61900;BME280;47853;55.890;37.664;2023-02-04T01:00:51;98784.88;;;0.81;100.00
61900;BME280;47853;55.890;37.664;2023-02-04T01:03:16;98781.56;;;0.45;100.00
61900;BME280;47853;55.890;37.664;2023-02-04T01:05:41;98774.19;;;0.38;100.00
61900;BME280;47853;55.890;37.664;2023-02-04T01:08:07;98780.47;;;0.36;100.00
61900;BME280;47853;55.890;37.664;2023-02-04T01:10:32;98777.19;;;0.68;100.00
61900;BME280;47853;55.890;37.664;2023-02-04T01:12:57;98784.28;;;0.77;100.00
61900;BME280;47853;55.890;37.664;2023-02-04T01:15:23;98781.56;;;0.90;100.00
61900;BME280;47853;55.890;37.664;2023-02-04T01:17:49;98793.53;;;0.93;100.00
61900;BME280;47853;55.890;37.664;2023-02-04T01:20:14;98776.94;;;0.71;100.00
61900;BME280;47853;55.890;37.664;2023-02-04T01:22:39;98784.09;;;1.24;100.00
61900;BME280;47853;55.890;37.664;2023-02-04T01:25:05;98787.31;;;1.28;100.00
61900;BME280;47853;55.890;37.664;2023-02-04T01:27:31;98790.41;;;1.22;100.00
61900;BME280;47853;55.890;37.664;2023-02-04T01:29:56;98785.22;;;0.88;100.00
61900;BME280;47853;55.890;37.664;2023-02-04T01:32:22;98787.13;;;1.52;100.00
61900;BME280;47853;55.890;37.664;2023-02-04T01:34:47;98768.66;;;1.54;100.00
61900;BME280;47853;55.890;37.664;2023-02-04T01:37:12;98792.84;;;1.79;100.00
61900;BME280;47853;55.890;37.664;2023-02-04T01:39:38;98806.56;;;1.27;100.00
61900;BME280;47853;55.890;37.664;2023-02-04T01:42:03;98797.81;;;1.17;100.00
61900;BME280;47853;55.890;37.664;2023-02-04T01:44:29;98795.44;;;0.91;100.00
61900;BME280;47853;55.890;37.664;2023-02-04T01:46:54;98788.75;;;1.21;100.00
61900;BME280;47853;55.890;37.664;2023-02-04T01:49:20;98801.25;;;1.50;100.00
61900;BME280;47853;55.890;37.664;2023-02-04T01:51:45;98792.44;;;1.62;100.00
61900;BME280;47853;55.890;37.664;2023-02-04T01:54:12;98808.53;;;1.79;100.00
61900;BME280;47853;55.890;37.664;2023-02-04T01:56:40;98805.53;;;1.62;100.00
61900;BME280;47853;55.890;37.664;2023-02-04T01:59:15;98813.50;;;1.61;100.00
61900;BME280;47853;55.890;37.664;2023-02-04T02:01:49;98816.94;;;2.15;100.00
61900;BME280;47853;55.890;37.664;2023-02-04T02:04:18;98811.19;;;2.00;100.00
61900;BME280;47853;55.890;37.664;2023-02-04T02:06:47;98812.16;;;2.20;100.00
61900;BME280;47853;55.890;37.664;2023-02-04T02:09:13;98813.88;;;2.10;100.00
61900;BME280;47853;55.890;37.664;2023-02-04T02:11:38;98820.34;;;2.06;100.00
61900;BME280;47853;55.890;37.664;2023-02-04T02:14:04;98817.50;;;2.18;100.00
61900;BME280;47853;55.890;37.664;2023-02-04T02:16:29;98828.81;;;2.40;100.00
61900;BME280;47853;55.890;37.664;2023-02-04T02:18:55;98830.34;;;2.43;100.00
61900;BME280;47853;55.890;37.664;2023-02-04T02:21:30;98826.97;;;2.52;100.00
61900;BME280;47853;55.890;37.664;2023-02-04T02:23:58;98829.13;;;2.68;100.00
61900;BME280;47853;55.890;37.664;2023-02-04T02:26:23;98835.09;;;2.49;100.00
61900;BME280;47853;55.890;37.664;2023-02-04T02:28:49;98835.22;;;2.47;100.00
61900;BME280;47853;55.890;37.664;2023-02-04T02:31:17;98833.16;;;2.51;100.00
61900;BME280;47853;55.890;37.664;2023-02-04T02:33:44;98839.38;;;2.50;100.00
61900;BME280;47853;55.890;37.664;2023-02-04T02:36:10;98831.44;;;2.40;100.00
61900;BME280;47853;55.890;37.664;2023-02-04T02:38:36;98833.91;;;2.42;100.00
61900;BME280;47853;55.890;37.664;2023-02-04T02:41:02;98831.88;;;2.45;100.00
61900;BME280;47853;55.890;37.664;2023-02-04T02:43:28;98842.03;;;2.60;100.00
61900;BME280;47853;55.890;37.664;2023-02-04T02:45:55;98843.13;;;2.57;100.00
61900;BME280;47853;55.890;37.664;2023-02-04T02:48:21;98858.69;;;2.28;100.00
61900;BME280;47853;55.890;37.664;2023-02-04T02:50:50;98846.19;;;1.99;100.00
61900;BME280;47853;55.890;37.664;2023-02-04T02:53:17;98853.69;;;2.03;100.00
61900;BME280;47853;55.890;37.664;2023-02-04T02:55:43;98864.03;;;2.05;100.00
61900;BME280;47853;55.890;37.664;2023-02-04T02:58:27;98868.22;;;2.29;100.00
61900;BME280;47853;55.890;37.664;2023-02-04T03:00:55;98855.66;;;2.32;100.00
61900;BME280;47853;55.890;37.664;2023-02-04T03:03:28;98865.88;;;2.36;100.00
61900;BME280;47853;55.890;37.664;2023-02-04T03:05:59;98864.22;;;2.35;100.00
61900;BME280;47853;55.890;37.664;2023-02-04T03:08:26;98858.94;;;2.46;100.00
61900;BME280;47853;55.890;37.664;2023-02-04T03:10:52;98862.28;;;2.15;100.00
61900;BME280;47853;55.890;37.664;2023-02-04T03:13:18;98854.25;;;2.28;100.00
61900;BME280;47853;55.890;37.664;2023-02-04T03:15:45;98875.56;;;2.56;100.00
61900;BME280;47853;55.890;37.664;2023-02-04T03:18:16;98864.81;;;2.17;100.00
61900;BME280;47853;55.890;37.664;2023-02-04T03:20:43;98878.88;;;2.16;100.00
61900;BME280;47853;55.890;37.664;2023-02-04T03:23:09;98866.56;;;2.16;100.00
61900;BME280;47853;55.890;37.664;2023-02-04T03:25:35;98882.78;;;2.22;100.00
61900;BME280;47853;55.890;37.664;2023-02-04T03:28:00;98879.91;;;2.25;100.00
61900;BME280;47853;55.890;37.664;2023-02-04T03:30:26;98889.38;;;2.37;100.00
61900;BME280;47853;55.890;37.664;2023-02-04T03:32:52;98883.22;;;2.27;100.00
61900;BME280;47853;55.890;37.664;2023-02-04T03:35:18;98884.38;;;2.55;100.00
61900;BME280;47853;55.890;37.664;2023-02-04T03:37:44;98896.81;;;2.42;100.00
61900;BME280;47853;55.890;37.664;2023-02-04T03:40:10;98888.81;;;2.86;100.00
61900;BME280;47853;55.890;37.664;2023-02-04T03:42:36;98900.66;;;2.80;100.00
61900;BME280;47853;55.890;37.664;2023-02-04T03:45:01;98892.53;;;2.41;100.00
61900;BME280;47853;55.890;37.664;2023-02-04T03:47:27;98889.28;;;2.70;100.00
61900;BME280;47853;55.890;37.664;2023-02-04T03:49:52;98895.66;;;2.77;100.00
61900;BME280;47853;55.890;37.664;2023-02-04T03:52:17;98902.72;;;2.55;100.00
61900;BME280;47853;55.890;37.664;2023-02-04T03:54:43;98903.25;;;2.49;100.00
61900;BME280;47853;55.890;37.664;2023-02-04T03:57:08;98903.91;;;1.97;100.00
61900;BME280;47853;55.890;37.664;2023-02-04T03:59:33;98903.22;;;1.51;100.00
61900;BME280;47853;55.890;37.664;2023-02-04T04:01:59;98895.53;;;1.27;100.00
61900;BME280;47853;55.890;37.664;2023-02-04T04:04:27;98919.41;;;1.45;100.00
61900;BME280;47853;55.890;37.664;2023-02-04T04:06:52;98908.75;;;1.81;100.00
61900;BME280;47853;55.890;37.664;2023-02-04T04:09:18;98926.19;;;1.36;100.00
61900;BME280;47853;55.890;37.664;2023-02-04T04:11:43;98927.88;;;1.14;100.00
61900;BME280;47853;55.890;37.664;2023-02-04T04:14:09;98906.56;;;1.08;100.00
61900;BME280;47853;55.890;37.664;2023-02-04T04:16:34;98917.38;;;1.37;100.00
61900;BME280;47853;55.890;37.664;2023-02-04T04:18:59;98930.09;;;1.30;100.00
61900;BME280;47853;55.890;37.664;2023-02-04T04:21:24;98931.88;;;1.64;100.00
61900;BME280;47853;55.890;37.664;2023-02-04T04:23:50;98927.63;;;1.96;100.00
61900;BME280;47853;55.890;37.664;2023-02-04T04:26:15;98932.97;;;1.39;100.00
61900;BME280;47853;55.890;37.664;2023-02-04T04:28:40;98944.50;;;1.48;100.00
61900;BME280;47853;55.890;37.664;2023-02-04T04:31:06;98936.84;;;1.79;100.00
61900;BME280;47853;55.890;37.664;2023-02-04T04:33:31;98926.53;;;2.10;100.00
61900;BME280;47853;55.890;37.664;2023-02-04T04:35:56;98941.31;;;2.32;100.00
61900;BME280;47853;55.890;37.664;2023-02-04T04:38:22;98926.72;;;2.18;100.00
61900;BME280;47853;55.890;37.664;2023-02-04T04:40:47;98945.63;;;2.54;100.00
61900;BME280;47853;55.890;37.664;2023-02-04T04:43:13;98929.59;;;2.15;100.00
61900;BME280;47853;55.890;37.664;2023-02-04T04:45:38;98956.28;;;2.09;100.00
61900;BME280;47853;55.890;37.664;2023-02-04T04:48:04;98954.59;;;2.19;100.00
61900;BME280;47853;55.890;37.664;2023-02-04T04:50:29;98946.19;;;2.04;100.00
61900;BME280;47853;55.890;37.664;2023-02-04T04:52:54;98946.84;;;1.73;100.00
61900;BME280;47853;55.890;37.664;2023-02-04T04:55:20;98954.78;;;1.95;100.00
61900;BME280;47853;55.890;37.664;2023-02-04T04:57:45;98952.09;;;1.62;100.00
61900;BME280;47853;55.890;37.664;2023-02-04T05:00:15;98971.00;;;1.88;100.00
61900;BME280;47853;55.890;37.664;2023-02-04T05:02:41;98951.38;;;1.71;100.00
61900;BME280;47853;55.890;37.664;2023-02-04T05:05:06;98972.03;;;1.97;100.00
61900;BME280;47853;55.890;37.664;2023-02-04T05:07:32;98975.19;;;2.24;100.00
61900;BME280;47853;55.890;37.664;2023-02-04T05:09:57;98970.34;;;2.08;100.00
61900;BME280;47853;55.890;37.664;2023-02-04T05:12:22;98971.56;;;2.03;100.00
61900;BME280;47853;55.890;37.664;2023-02-04T05:14:48;98986.72;;;1.77;100.00
61900;BME280;47853;55.890;37.664;2023-02-04T05:17:14;98982.94;;;2.14;100.00
61900;BME280;47853;55.890;37.664;2023-02-04T05:19:40;98984.28;;;1.97;100.00
61900;BME280;47853;55.890;37.664;2023-02-04T05:22:05;98980.00;;;1.96;100.00
61900;BME280;47853;55.890;37.664;2023-02-04T05:24:30;98978.03;;;2.21;100.00
61900;BME280;47853;55.890;37.664;2023-02-04T05:26:56;98991.31;;;1.96;100.00
61900;BME280;47853;55.890;37.664;2023-02-04T05:29:21;98991.94;;;2.32;100.00
61900;BME280;47853;55.890;37.664;2023-02-04T05:31:46;98984.22;;;2.20;100.00
61900;BME280;47853;55.890;37.664;2023-02-04T05:34:12;99006.25;;;2.28;100.00
61900;BME280;47853;55.890;37.664;2023-02-04T05:36:37;99007.50;;;2.45;100.00
61900;BME280;47853;55.890;37.664;2023-02-04T05:39:02;99011.13;;;2.33;100.00
61900;BME280;47853;55.890;37.664;2023-02-04T05:41:28;98997.69;;;2.26;100.00
61900;BME280;47853;55.890;37.664;2023-02-04T05:43:56;99013.53;;;2.13;100.00
61900;BME280;47853;55.890;37.664;2023-02-04T05:46:21;99011.28;;;2.20;100.00
61900;BME280;47853;55.890;37.664;2023-02-04T05:48:46;99007.72;;;2.10;100.00
61900;BME280;47853;55.890;37.664;2023-02-04T05:51:12;99006.53;;;2.14;100.00
61900;BME280;47853;55.890;37.664;2023-02-04T05:53:37;99011.22;;;2.31;100.00
61900;BME280;47853;55.890;37.664;2023-02-04T05:56:03;99012.78;;;2.34;100.00
61900;BME280;47853;55.890;37.664;2023-02-04T05:58:28;99013.75;;;2.33;100.00
61900;BME280;47853;55.890;37.664;2023-02-04T06:00:53;99027.91;;;2.30;100.00
61900;BME280;47853;55.890;37.664;2023-02-04T06:03:19;99016.47;;;2.31;100.00
61900;BME280;47853;55.890;37.664;2023-02-04T06:05:44;99031.69;;;2.38;100.00
61900;BME280;47853;55.890;37.664;2023-02-04T06:08:09;99010.47;;;2.08;100.00
61900;BME280;47853;55.890;37.664;2023-02-04T06:10:35;99034.63;;;2.12;100.00
61900;BME280;47853;55.890;37.664;2023-02-04T06:13:00;99045.59;;;1.94;100.00
61900;BME280;47853;55.890;37.664;2023-02-04T06:15:25;99055.50;;;1.79;100.00
61900;BME280;47853;55.890;37.664;2023-02-04T06:17:51;99043.94;;;1.48;100.00
61900;BME280;47853;55.890;37.664;2023-02-04T06:20:16;99067.97;;;1.53;100.00
61900;BME280;47853;55.890;37.664;2023-02-04T06:22:42;99043.31;;;1.21;100.00
61900;BME280;47853;55.890;37.664;2023-02-04T06:25:07;99069.03;;;1.39;100.00
61900;BME280;47853;55.890;37.664;2023-02-04T06:27:32;99071.56;;;1.74;100.00
61900;BME280;47853;55.890;37.664;2023-02-04T06:29:58;99072.75;;;2.05;100.00
61900;BME280;47853;55.890;37.664;2023-02-04T06:32:23;99081.81;;;2.00;100.00
61900;BME280;47853;55.890;37.664;2023-02-04T06:34:49;99085.13;;;1.68;100.00
61900;BME280;47853;55.890;37.664;2023-02-04T06:37:14;99079.66;;;1.83;100.00
61900;BME280;47853;55.890;37.664;2023-02-04T06:39:40;99048.56;;;2.12;100.00
61900;BME280;47853;55.890;37.664;2023-02-04T06:42:05;99087.16;;;1.99;100.00
61900;BME280;47853;55.890;37.664;2023-02-04T06:44:30;99079.78;;;1.93;100.00
61900;BME280;47853;55.890;37.664;2023-02-04T06:46:56;99087.38;;;2.07;100.00
61900;BME280;47853;55.890;37.664;2023-02-04T06:49:21;99087.88;;;1.90;100.00
61900;BME280;47853;55.890;37.664;2023-02-04T06:51:46;99100.38;;;1.74;100.00
61900;BME280;47853;55.890;37.664;2023-02-04T06:54:12;99093.06;;;1.33;100.00
61900;BME280;47853;55.890;37.664;2023-02-04T06:56:37;99094.13;;;0.94;100.00
61900;BME280;47853;55.890;37.664;2023-02-04T06:59:02;99088.41;;;0.65;100.00
61900;BME280;47853;55.890;37.664;2023-02-04T07:01:28;99102.25;;;0.78;100.00
61900;BME280;47853;55.890;37.664;2023-02-04T07:03:53;99099.69;;;0.90;100.00
61900;BME280;47853;55.890;37.664;2023-02-04T07:06:18;99109.53;;;0.86;100.00
61900;BME280;47853;55.890;37.664;2023-02-04T07:08:44;99106.13;;;0.97;100.00
61900;BME280;47853;55.890;37.664;2023-02-04T07:11:09;99117.41;;;1.22;100.00
61900;BME280;47853;55.890;37.664;2023-02-04T07:13:34;99115.44;;;1.48;100.00
61900;BME280;47853;55.890;37.664;2023-02-04T07:16:00;99114.84;;;1.44;100.00
61900;BME280;47853;55.890;37.664;2023-02-04T07:18:25;99124.16;;;1.60;100.00
61900;BME280;47853;55.890;37.664;2023-02-04T07:20:50;99120.59;;;1.72;100.00
61900;BME280;47853;55.890;37.664;2023-02-04T07:23:16;99112.41;;;1.77;100.00
61900;BME280;47853;55.890;37.664;2023-02-04T07:25:41;99131.44;;;1.79;100.00
61900;BME280;47853;55.890;37.664;2023-02-04T07:28:06;99119.97;;;1.69;100.00
61900;BME280;47853;55.890;37.664;2023-02-04T07:30:32;99126.66;;;1.73;100.00
61900;BME280;47853;55.890;37.664;2023-02-04T07:32:57;99134.66;;;1.83;100.00
61900;BME280;47853;55.890;37.664;2023-02-04T07:35:23;99142.88;;;1.90;100.00
61900;BME280;47853;55.890;37.664;2023-02-04T07:37:48;99121.09;;;2.12;100.00
61900;BME280;47853;55.890;37.664;2023-02-04T07:40:14;99142.25;;;2.31;100.00
61900;BME280;47853;55.890;37.664;2023-02-04T07:42:40;99145.94;;;2.52;100.00
61900;BME280;47853;55.890;37.664;2023-02-04T07:45:06;99130.13;;;2.30;100.00
61900;BME280;47853;55.890;37.664;2023-02-04T07:47:32;99151.41;;;2.49;100.00
61900;BME280;47853;55.890;37.664;2023-02-04T07:49:57;99152.41;;;2.25;100.00
61900;BME280;47853;55.890;37.664;2023-02-04T07:52:23;99147.50;;;1.74;100.00
61900;BME280;47853;55.890;37.664;2023-02-04T07:54:48;99157.91;;;1.52;100.00
61900;BME280;47853;55.890;37.664;2023-02-04T07:57:14;99131.47;;;1.32;100.00
61900;BME280;47853;55.890;37.664;2023-02-04T07:59:39;99159.97;;;1.59;100.00
61900;BME280;47853;55.890;37.664;2023-02-04T08:02:04;99162.25;;;1.64;100.00
61900;BME280;47853;55.890;37.664;2023-02-04T08:04:30;99162.16;;;2.00;100.00
61900;BME280;47853;55.890;37.664;2023-02-04T08:06:55;99151.31;;;2.39;100.00
61900;BME280;47853;55.890;37.664;2023-02-04T08:09:21;99157.28;;;2.18;100.00
61900;BME280;47853;55.890;37.664;2023-02-04T08:11:46;99157.88;;;1.99;100.00
61900;BME280;47853;55.890;37.664;2023-02-04T08:14:12;99168.00;;;2.15;100.00
61900;BME280;47853;55.890;37.664;2023-02-04T08:16:37;99163.97;;;1.99;100.00
61900;BME280;47853;55.890;37.664;2023-02-04T08:19:03;99153.00;;;2.17;100.00
61900;BME280;47853;55.890;37.664;2023-02-04T08:21:28;99164.88;;;1.98;100.00
61900;BME280;47853;55.890;37.664;2023-02-04T08:23:53;99155.13;;;2.35;100.00
61900;BME280;47853;55.890;37.664;2023-02-04T08:26:19;99164.41;;;2.27;100.00
61900;BME280;47853;55.890;37.664;2023-02-04T08:28:44;99180.88;;;2.18;100.00
61900;BME280;47853;55.890;37.664;2023-02-04T08:31:10;99161.44;;;2.21;100.00
61900;BME280;47853;55.890;37.664;2023-02-04T08:33:35;99180.16;;;2.27;100.00
61900;BME280;47853;55.890;37.664;2023-02-04T08:36:00;99176.53;;;1.94;100.00
61900;BME280;47853;55.890;37.664;2023-02-04T08:38:25;99175.25;;;2.00;100.00
61900;BME280;47853;55.890;37.664;2023-02-04T08:40:51;99183.00;;;2.24;100.00
61900;BME280;47853;55.890;37.664;2023-02-04T08:43:16;99182.16;;;2.01;100.00
61900;BME280;47853;55.890;37.664;2023-02-04T08:45:41;99188.13;;;2.14;100.00
61900;BME280;47853;55.890;37.664;2023-02-04T08:48:07;99193.81;;;2.54;100.00
61900;BME280;47853;55.890;37.664;2023-02-04T08:50:32;99174.19;;;2.14;100.00
61900;BME280;47853;55.890;37.664;2023-02-04T08:52:57;99187.63;;;2.21;100.00
61900;BME280;47853;55.890;37.664;2023-02-04T08:55:23;99193.59;;;2.45;100.00
61900;BME280;47853;55.890;37.664;2023-02-04T08:57:48;99166.78;;;2.42;100.00
61900;BME280;47853;55.890;37.664;2023-02-04T09:00:14;99169.19;;;2.45;100.00
61900;BME280;47853;55.890;37.664;2023-02-04T09:02:39;99175.38;;;2.32;100.00
61900;BME280;47853;55.890;37.664;2023-02-04T09:05:05;99195.75;;;2.52;100.00
61900;BME280;47853;55.890;37.664;2023-02-04T09:07:30;99180.84;;;2.41;100.00
61900;BME280;47853;55.890;37.664;2023-02-04T09:09:56;99181.09;;;2.38;100.00
61900;BME280;47853;55.890;37.664;2023-02-04T09:12:21;99189.44;;;2.31;100.00
61900;BME280;47853;55.890;37.664;2023-02-04T09:14:46;99198.97;;;2.21;100.00
61900;BME280;47853;55.890;37.664;2023-02-04T09:17:12;99194.69;;;2.09;100.00
61900;BME280;47853;55.890;37.664;2023-02-04T09:19:37;99211.94;;;2.45;100.00
61900;BME280;47853;55.890;37.664;2023-02-04T09:22:02;99209.69;;;2.52;100.00
61900;BME280;47853;55.890;37.664;2023-02-04T09:24:28;99214.41;;;2.81;100.00
61900;BME280;47853;55.890;37.664;2023-02-04T09:26:53;99213.19;;;2.85;100.00
61900;BME280;47853;55.890;37.664;2023-02-04T09:29:19;99213.00;;;2.88;100.00
61900;BME280;47853;55.890;37.664;2023-02-04T09:31:44;99212.75;;;2.80;100.00
61900;BME280;47853;55.890;37.664;2023-02-04T09:34:09;99222.53;;;2.89;100.00
61900;BME280;47853;55.890;37.664;2023-02-04T09:36:34;99221.81;;;2.87;100.00
61900;BME280;47853;55.890;37.664;2023-02-04T09:39:00;99223.78;;;3.07;100.00
61900;BME280;47853;55.890;37.664;2023-02-04T09:41:25;99216.13;;;3.15;100.00
61900;BME280;47853;55.890;37.664;2023-02-04T09:43:50;99233.56;;;3.04;100.00
61900;BME280;47853;55.890;37.664;2023-02-04T09:46:21;99230.25;;;2.91;100.00
61900;BME280;47853;55.890;37.664;2023-02-04T09:48:48;99223.03;;;2.38;100.00
61900;BME280;47853;55.890;37.664;2023-02-04T09:51:19;99218.25;;;2.31;100.00
61900;BME280;47853;55.890;37.664;2023-02-04T09:53:46;99217.31;;;2.55;100.00
61900;BME280;47853;55.890;37.664;2023-02-04T09:56:11;99226.13;;;2.54;100.00
61900;BME280;47853;55.890;37.664;2023-02-04T09:58:37;99242.09;;;2.63;100.00
61900;BME280;47853;55.890;37.664;2023-02-04T10:01:15;99238.78;;;2.49;100.00
61900;BME280;47853;55.890;37.664;2023-02-04T10:03:43;99245.38;;;1.96;100.00
61900;BME280;47853;55.890;37.664;2023-02-04T10:06:09;99235.16;;;2.05;100.00
61900;BME280;47853;55.890;37.664;2023-02-04T10:08:34;99250.13;;;1.91;100.00
61900;BME280;47853;55.890;37.664;2023-02-04T10:11:00;99238.34;;;1.97;100.00
61900;BME280;47853;55.890;37.664;2023-02-04T10:13:33;99245.25;;;1.98;100.00
61900;BME280;47853;55.890;37.664;2023-02-04T10:16:01;99232.41;;;2.17;100.00
61900;BME280;47853;55.890;37.664;2023-02-04T10:18:31;99254.84;;;2.67;100.00
61900;BME280;47853;55.890;37.664;2023-02-04T10:21:25;99250.59;;;3.10;100.00
61900;BME280;47853;55.890;37.664;2023-02-04T10:23:54;99256.47;;;3.02;100.00
61900;BME280;47853;55.890;37.664;2023-02-04T10:26:27;99258.88;;;2.83;100.00
61900;BME280;47853;55.890;37.664;2023-02-04T10:29:03;99266.28;;;2.89;100.00
61900;BME280;47853;55.890;37.664;2023-02-04T10:31:33;99244.56;;;2.87;100.00
61900;BME280;47853;55.890;37.664;2023-02-04T10:36:43;99262.34;;;2.72;100.00
61900;BME280;47853;55.890;37.664;2023-02-04T10:39:18;99263.06;;;2.74;100.00
61900;BME280;47853;55.890;37.664;2023-02-04T10:41:54;99265.22;;;2.57;100.00
61900;BME280;47853;55.890;37.664;2023-02-04T10:44:30;99268.28;;;2.40;100.00
61900;BME280;47853;55.890;37.664;2023-02-04T10:47:16;99276.41;;;2.82;100.00
61900;BME280;47853;55.890;37.664;2023-02-04T10:49:51;99272.38;;;2.44;100.00
61900;BME280;47853;55.890;37.664;2023-02-04T10:55:55;99193.63;;;2.34;100.00
61900;BME280;47853;55.890;37.664;2023-02-04T11:01:54;99186.97;;;1.60;100.00
61900;BME280;47853;55.890;37.664;2023-02-04T11:04:22;99235.19;;;1.33;100.00
61900;BME280;47853;55.890;37.664;2023-02-04T11:06:48;99184.75;;;1.31;100.00
61900;BME280;47853;55.890;37.664;2023-02-04T11:09:14;99194.38;;;1.66;100.00
61900;BME280;47853;55.890;37.664;2023-02-04T11:11:49;99259.69;;;2.03;100.00
61900;BME280;47853;55.890;37.664;2023-02-04T11:14:27;99293.91;;;2.25;100.00
61900;BME280;47853;55.890;37.664;2023-02-04T11:16:54;99286.25;;;2.10;100.00
61900;BME280;47853;55.890;37.664;2023-02-04T11:19:37;99297.50;;;2.46;100.00
61900;BME280;47853;55.890;37.664;2023-02-04T11:22:22;99310.84;;;2.32;100.00
61900;BME280;47853;55.890;37.664;2023-02-04T11:24:48;99307.38;;;1.84;100.00
61900;BME280;47853;55.890;37.664;2023-02-04T11:27:20;99309.63;;;1.53;100.00
61900;BME280;47853;55.890;37.664;2023-02-04T11:29:46;99283.72;;;1.00;100.00
61900;BME280;47853;55.890;37.664;2023-02-04T11:32:31;99289.81;;;1.00;100.00
61900;BME280;47853;55.890;37.664;2023-02-04T11:37:39;99308.38;;;1.22;100.00
61900;BME280;47853;55.890;37.664;2023-02-04T11:40:28;99313.25;;;1.75;100.00
61900;BME280;47853;55.890;37.664;2023-02-04T11:43:14;99321.41;;;1.83;100.00
61900;BME280;47853;55.890;37.664;2023-02-04T11:45:39;99323.63;;;2.01;100.00
61900;BME280;47853;55.890;37.664;2023-02-04T11:48:14;99322.03;;;1.98;100.00
61900;BME280;47853;55.890;37.664;2023-02-04T11:51:00;99331.31;;;2.27;100.00
61900;BME280;47853;55.890;37.664;2023-02-04T11:53:32;99327.38;;;2.21;100.00
61900;BME280;47853;55.890;37.664;2023-02-04T11:55:58;99327.84;;;2.26;100.00
61900;BME280;47853;55.890;37.664;2023-02-04T11:58:24;99328.13;;;2.46;100.00
61900;BME280;47853;55.890;37.664;2023-02-04T12:00:50;99331.63;;;2.69;100.00
61900;BME280;47853;55.890;37.664;2023-02-04T12:03:44;99335.50;;;1.94;100.00
61900;BME280;47853;55.890;37.664;2023-02-04T12:06:20;99327.03;;;1.90;100.00
61900;BME280;47853;55.890;37.664;2023-02-04T12:08:45;99316.28;;;1.57;100.00
61900;BME280;47853;55.890;37.664;2023-02-04T12:11:27;99340.69;;;1.82;100.00
61900;BME280;47853;55.890;37.664;2023-02-04T12:13:54;99335.38;;;1.95;100.00
61900;BME280;47853;55.890;37.664;2023-02-04T12:16:20;99350.53;;;2.03;100.00
61900;BME280;47853;55.890;37.664;2023-02-04T12:18:45;99354.56;;;1.96;100.00
61900;BME280;47853;55.890;37.664;2023-02-04T12:21:11;99341.41;;;1.84;100.00
61900;BME280;47853;55.890;37.664;2023-02-04T12:23:36;99367.72;;;1.83;100.00
61900;BME280;47853;55.890;37.664;2023-02-04T12:26:02;99369.50;;;1.58;100.00
61900;BME280;47853;55.890;37.664;2023-02-04T12:28:27;99368.22;;;1.64;100.00
61900;BME280;47853;55.890;37.664;2023-02-04T12:30:53;99359.44;;;1.52;100.00
61900;BME280;47853;55.890;37.664;2023-02-04T12:33:19;99358.44;;;1.41;100.00
61900;BME280;47853;55.890;37.664;2023-02-04T12:35:45;99348.84;;;1.29;100.00
61900;BME280;47853;55.890;37.664;2023-02-04T12:38:10;99380.00;;;1.45;100.00
61900;BME280;47853;55.890;37.664;2023-02-04T12:40:37;99370.47;;;1.07;100.00
61900;BME280;47853;55.890;37.664;2023-02-04T12:43:02;99356.31;;;1.09;100.00
61900;BME280;47853;55.890;37.664;2023-02-04T12:45:28;99375.03;;;1.16;100.00
61900;BME280;47853;55.890;37.664;2023-02-04T12:47:53;99371.84;;;0.99;100.00
61900;BME280;47853;55.890;37.664;2023-02-04T12:50:19;99386.50;;;0.76;100.00
61900;BME280;47853;55.890;37.664;2023-02-04T12:52:44;99392.88;;;0.72;100.00
61900;BME280;47853;55.890;37.664;2023-02-04T12:55:20;99403.84;;;0.77;100.00
61900;BME280;47853;55.890;37.664;2023-02-04T12:57:46;99382.28;;;0.35;100.00
61900;BME280;47853;55.890;37.664;2023-02-04T13:00:13;99398.91;;;0.72;100.00